• Join FlightAware (Why Join?)
  • Login
  • US Flag 
06:38PM EDT


 

Airport Tracker/Info


-or-


 

Live Flight TrackerFlight Track Log ✈ N612CT ✈ 15-Nov-2013 ✈ KMIA - KAPF

Flight Track Log - Related Links

Times and Time Zones

All times are in EST time to prevent confusion due to time zone crossing. See the N612CT flight status page for this flight to view local times or setup timezone preferences in your user account.

Time Position Orientation Groundspeed Altitude Reporting Facility
EST Latitude Longitude Course Direction KTS MPH feet Rate Location/Type
08:58PM 25.8022 -80.2814 40° Northeast 68 78 600  Level Miami Center
08:59PM 25.8236 -80.2614 40° Northeast 75 86 1,600 720 Climbing Miami Center
09:00PM 25.8406 -80.2481 35° Northeast 84 97 2,300 660 Climbing Miami Center
09:01PM 25.8717 -80.2533 351° North 131 151 3,000 720 Climbing Miami Center
09:02PM 25.9047 -80.2683 338° Northwest 124 143 3,900 540 Climbing Miami Center
09:03PM 25.9269 -80.3011 307° West 151 174 4,100 60 Climbing Miami Center
09:04PM 25.9447 -80.3525 291° West 183 211 4,100  Level Miami Center
09:05PM 25.9622 -80.4039 291° West 184 212 4,100  Level Miami Center
09:06PM 25.9778 -80.4528 290° West 183 211 4,100  Level Miami Center
09:07PM 25.9972 -80.5044 293° West 183 211 4,200  Climbing Miami Center
09:08PM 26.0275 -80.5444 310° West 181 208 4,100 -120 Descending Miami Center
09:09PM 26.0728 -80.5714 332° Northwest 184 212 4,000 -60 Descending Miami Center
09:10PM 26.1139 -80.6050 324° Northwest 180 207 4,000 120 Level Miami Center
09:11PM 26.1417 -80.6569 301° West 174 200 4,300 420 Climbing Miami Center
09:12PM 26.1617 -80.6967 299° West 144 166 5,000 660 Climbing Miami Center
09:13PM 26.1900 -80.7300 313° West 145 167 5,800 660 Climbing Miami Center
09:14PM 26.2183 -80.7589 318° Northwest 145 167 6,500 900 Climbing Miami Center
09:15PM 26.2447 -80.7944 310° West 139 160 7,600 600 Climbing Miami Center
09:16PM 26.2772 -80.8233 321° Northwest 139 160 7,700 -360 Climbing Miami Center
09:17PM 26.3136 -80.8686 312° West 181 208 6,900 -780 Descending Miami Center
09:18PM 26.3350 -80.9225 294° West 199 229 6,200 -420 Descending Miami Center
09:19PM 26.3292 -80.9825 264° West 198 228 6,100 -60 Descending Miami Center
09:20PM 26.3256 -81.0381 266° West 198 228 6,100 -60 Level Miami Center
09:21PM 26.3239 -81.0961 268° West 198 228 6,000 -300 Descending Miami Center
09:22PM 26.3181 -81.1561 264° West 198 228 5,600 -540 Descending Miami Center
09:23PM 26.3078 -81.2136 259° West 198 228 5,000 -600 Descending Miami Center
09:24PM 26.2914 -81.2731 253° West 198 228 4,500 -420 Descending Miami Center
09:25PM 26.2772 -81.3306 255° West 198 228 4,200 -300 Descending Miami Center
09:26PM 26.2611 -81.3808 250° West 198 228 4,000 -180 Descending Miami Center
09:27PM 26.2467 -81.4383 254° West 198 228 3,900 -60 Descending Miami Center
09:28PM 26.2325 -81.4908 253° West 193 222 3,900 -240 Level Miami Center
09:29PM 26.2058 -81.5431 240° Southwest 193 222 3,500 -540 Descending Miami Center
09:30PM 26.1769 -81.5975 239° Southwest 202 232 2,900 -600 Descending Miami Center
09:32PM 26.1686 -81.6502 260° West  Level FlightAware Approximate
09:39PM 26.1500 -81.7667 254° West  Level FlightAware Approximate
09:40PM 26.1524 -81.7756 254° West  Level Estimated
09:41PM 26.1524 -81.7756 254° West  Level Estimated
09:42PM 26.1524 -81.7756 254° West  Level Estimated
09:43PM 26.1524 -81.7756 254° West  Level Estimated
09:44PM 26.1524 -81.7756 254° West  Level Estimated